sensor_id;sensor_type;location;lat;lon;timestamp;temperature;humidity
66144;SHT31;52947;50.842;6.084;2023-03-01T00:01:12;-1.71;83.03
66144;SHT31;52947;50.842;6.084;2023-03-01T00:03:41;-1.64;82.98
66144;SHT31;52947;50.842;6.084;2023-03-01T00:06:09;-1.57;83.08
66144;SHT31;52947;50.842;6.084;2023-03-01T00:08:38;-1.95;82.94
66144;SHT31;52947;50.842;6.084;2023-03-01T00:11:08;-2.23;83.49
66144;SHT31;52947;50.842;6.084;2023-03-01T00:13:36;-2.46;83.71
66144;SHT31;52947;50.842;6.084;2023-03-01T00:16:04;-2.64;84.03
66144;SHT31;52947;50.842;6.084;2023-03-01T00:18:34;-2.83;84.14
66144;SHT31;52947;50.842;6.084;2023-03-01T00:21:02;-2.92;84.73
66144;SHT31;52947;50.842;6.084;2023-03-01T00:23:30;-2.95;85.38
66144;SHT31;52947;50.842;6.084;2023-03-01T00:25:57;-2.97;85.80
66144;SHT31;52947;50.842;6.084;2023-03-01T00:28:26;-2.80;85.95
66144;SHT31;52947;50.842;6.084;2023-03-01T00:30:54;-2.64;85.80
66144;SHT31;52947;50.842;6.084;2023-03-01T00:33:22;-2.74;85.83
66144;SHT31;52947;50.842;6.084;2023-03-01T00:35:51;-2.85;85.44
66144;SHT31;52947;50.842;6.084;2023-03-01T00:38:19;-2.73;85.66
66144;SHT31;52947;50.842;6.084;2023-03-01T00:40:46;-2.70;86.14
66144;SHT31;52947;50.842;6.084;2023-03-01T00:43:14;-2.84;85.63
66144;SHT31;52947;50.842;6.084;2023-03-01T00:45:42;-2.97;85.66
66144;SHT31;52947;50.842;6.084;2023-03-01T00:48:10;-3.02;86.19
66144;SHT31;52947;50.842;6.084;2023-03-01T00:50:38;-3.05;86.16
66144;SHT31;52947;50.842;6.084;2023-03-01T00:53:08;-2.97;86.12
66144;SHT31;52947;50.842;6.084;2023-03-01T00:55:36;-2.94;86.34
66144;SHT31;52947;50.842;6.084;2023-03-01T00:58:05;-2.95;86.57
66144;SHT31;52947;50.842;6.084;2023-03-01T01:00:33;-3.02;86.29
66144;SHT31;52947;50.842;6.084;2023-03-01T01:03:02;-3.08;86.68
66144;SHT31;52947;50.842;6.084;2023-03-01T01:05:30;-3.12;86.58
66144;SHT31;52947;50.842;6.084;2023-03-01T01:07:58;-3.07;86.72
66144;SHT31;52947;50.842;6.084;2023-03-01T01:10:27;-3.21;86.71
66144;SHT31;52947;50.842;6.084;2023-03-01T01:12:55;-3.31;86.42
66144;SHT31;52947;50.842;6.084;2023-03-01T01:15:23;-3.42;86.34
66144;SHT31;52947;50.842;6.084;2023-03-01T01:17:51;-3.51;86.61
66144;SHT31;52947;50.842;6.084;2023-03-01T01:20:19;-3.42;86.87
66144;SHT31;52947;50.842;6.084;2023-03-01T01:22:46;-3.49;87.07
66144;SHT31;52947;50.842;6.084;2023-03-01T01:25:14;-3.56;86.83
66144;SHT31;52947;50.842;6.084;2023-03-01T01:27:44;-3.60;86.91
66144;SHT31;52947;50.842;6.084;2023-03-01T01:30:12;-3.69;86.88
66144;SHT31;52947;50.842;6.084;2023-03-01T01:32:40;-3.67;87.12
66144;SHT31;52947;50.842;6.084;2023-03-01T01:35:08;-3.77;87.27
66144;SHT31;52947;50.842;6.084;2023-03-01T01:37:36;-3.80;87.13
66144;SHT31;52947;50.842;6.084;2023-03-01T01:40:05;-3.90;87.13
66144;SHT31;52947;50.842;6.084;2023-03-01T01:42:33;-3.91;87.35
66144;SHT31;52947;50.842;6.084;2023-03-01T01:45:35;-4.03;87.29
66144;SHT31;52947;50.842;6.084;2023-03-01T01:48:05;-4.00;87.42
66144;SHT31;52947;50.842;6.084;2023-03-01T01:50:35;-4.01;87.51
66144;SHT31;52947;50.842;6.084;2023-03-01T01:53:07;-3.97;87.76
66144;SHT31;52947;50.842;6.084;2023-03-01T01:55:37;-4.04;87.53
66144;SHT31;52947;50.842;6.084;2023-03-01T01:58:09;-3.87;87.96
66144;SHT31;52947;50.842;6.084;2023-03-01T02:00:39;-3.84;88.00
66144;SHT31;52947;50.842;6.084;2023-03-01T02:03:10;-3.90;87.89
66144;SHT31;52947;50.842;6.084;2023-03-01T02:05:44;-3.94;87.70
66144;SHT31;52947;50.842;6.084;2023-03-01T02:08:23;-4.07;87.41
66144;SHT31;52947;50.842;6.084;2023-03-01T02:10:54;-4.10;87.61
66144;SHT31;52947;50.842;6.084;2023-03-01T02:13:23;-4.17;87.84
66144;SHT31;52947;50.842;6.084;2023-03-01T02:15:52;-4.15;88.08
66144;SHT31;52947;50.842;6.084;2023-03-01T02:18:22;-4.11;88.27
66144;SHT31;52947;50.842;6.084;2023-03-01T02:21:05;-4.01;88.54
66144;SHT31;52947;50.842;6.084;2023-03-01T02:23:36;-3.91;88.40
66144;SHT31;52947;50.842;6.084;2023-03-01T02:26:08;-3.91;88.25
66144;SHT31;52947;50.842;6.084;2023-03-01T02:28:44;-4.05;88.00
66144;SHT31;52947;50.842;6.084;2023-03-01T02:31:16;-4.17;87.92
66144;SHT31;52947;50.842;6.084;2023-03-01T02:34:03;-4.28;88.07
66144;SHT31;52947;50.842;6.084;2023-03-01T02:36:35;-4.29;88.20
66144;SHT31;52947;50.842;6.084;2023-03-01T02:39:06;-4.34;88.34
66144;SHT31;52947;50.842;6.084;2023-03-01T02:41:44;-4.36;88.59
66144;SHT31;52947;50.842;6.084;2023-03-01T02:44:15;-4.46;88.55
66144;SHT31;52947;50.842;6.084;2023-03-01T02:46:44;-4.54;88.53
66144;SHT31;52947;50.842;6.084;2023-03-01T02:49:22;-4.58;88.71
66144;SHT31;52947;50.842;6.084;2023-03-01T02:52:05;-4.62;88.69
66144;SHT31;52947;50.842;6.084;2023-03-01T02:54:40;-4.66;88.85
66144;SHT31;52947;50.842;6.084;2023-03-01T02:57:10;-4.69;89.10
66144;SHT31;52947;50.842;6.084;2023-03-01T02:59:41;-4.76;88.98
66144;SHT31;52947;50.842;6.084;2023-03-01T03:02:19;-4.71;89.89
66144;SHT31;52947;50.842;6.084;2023-03-01T03:05:24;-4.40;90.77
66144;SHT31;52947;50.842;6.084;2023-03-01T03:07:55;-4.27;90.70
66144;SHT31;52947;50.842;6.084;2023-03-01T03:10:26;-4.07;90.49
66144;SHT31;52947;50.842;6.084;2023-03-01T03:12:57;-4.03;90.06
66144;SHT31;52947;50.842;6.084;2023-03-01T03:15:27;-4.05;89.97
66144;SHT31;52947;50.842;6.084;2023-03-01T03:17:56;-4.11;89.87
66144;SHT31;52947;50.842;6.084;2023-03-01T03:20:27;-4.10;90.03
66144;SHT31;52947;50.842;6.084;2023-03-01T03:22:56;-4.25;89.44
66144;SHT31;52947;50.842;6.084;2023-03-01T03:25:27;-4.32;89.69
66144;SHT31;52947;50.842;6.084;2023-03-01T03:27:55;-4.48;89.43
66144;SHT31;52947;50.842;6.084;2023-03-01T03:30:28;-4.61;89.39
66144;SHT31;52947;50.842;6.084;2023-03-01T03:32:57;-4.65;89.58
66144;SHT31;52947;50.842;6.084;2023-03-01T03:35:27;-4.72;89.59
66144;SHT31;52947;50.842;6.084;2023-03-01T03:37:57;-4.77;89.56
66144;SHT31;52947;50.842;6.084;2023-03-01T03:40:30;-4.71;90.08
66144;SHT31;52947;50.842;6.084;2023-03-01T03:42:58;-4.76;90.01
66144;SHT31;52947;50.842;6.084;2023-03-01T03:45:28;-4.79;90.06
66144;SHT31;52947;50.842;6.084;2023-03-01T03:47:56;-4.79;90.09
66144;SHT31;52947;50.842;6.084;2023-03-01T03:50:23;-4.85;90.13
66144;SHT31;52947;50.842;6.084;2023-03-01T03:52:51;-4.89;90.18
66144;SHT31;52947;50.842;6.084;2023-03-01T03:55:20;-4.97;89.98
66144;SHT31;52947;50.842;6.084;2023-03-01T03:57:48;-5.06;89.89
66144;SHT31;52947;50.842;6.084;2023-03-01T04:00:20;-5.11;89.94
66144;SHT31;52947;50.842;6.084;2023-03-01T04:02:50;-5.14;90.21
66144;SHT31;52947;50.842;6.084;2023-03-01T04:05:24;-5.13;90.53
66144;SHT31;52947;50.842;6.084;2023-03-01T04:07:53;-5.11;90.65
66144;SHT31;52947;50.842;6.084;2023-03-01T04:10:28;-5.04;90.89
66144;SHT31;52947;50.842;6.084;2023-03-01T04:12:57;-5.07;91.02
66144;SHT31;52947;50.842;6.084;2023-03-01T04:15:25;-5.17;90.67
66144;SHT31;52947;50.842;6.084;2023-03-01T04:17:55;-5.07;92.51
66144;SHT31;52947;50.842;6.084;2023-03-01T04:20:25;-5.18;91.22
66144;SHT31;52947;50.842;6.084;2023-03-01T04:22:57;-5.27;90.99
66144;SHT31;52947;50.842;6.084;2023-03-01T04:25:25;-5.27;91.13
66144;SHT31;52947;50.842;6.084;2023-03-01T04:27:53;-5.30;91.04
66144;SHT31;52947;50.842;6.084;2023-03-01T04:30:21;-5.37;90.83
66144;SHT31;52947;50.842;6.084;2023-03-01T04:32:51;-5.46;90.75
66144;SHT31;52947;50.842;6.084;2023-03-01T04:35:21;-5.51;91.22
66144;SHT31;52947;50.842;6.084;2023-03-01T04:37:49;-5.42;92.24
66144;SHT31;52947;50.842;6.084;2023-03-01T04:40:17;-5.40;92.23
66144;SHT31;52947;50.842;6.084;2023-03-01T04:42:45;-5.13;93.62
66144;SHT31;52947;50.842;6.084;2023-03-01T04:45:13;-5.14;92.55
66144;SHT31;52947;50.842;6.084;2023-03-01T04:47:43;-5.11;92.99
66144;SHT31;52947;50.842;6.084;2023-03-01T04:50:14;-5.01;93.23
66144;SHT31;52947;50.842;6.084;2023-03-01T04:52:44;-4.97;92.50
66144;SHT31;52947;50.842;6.084;2023-03-01T04:55:13;-4.66;93.17
66144;SHT31;52947;50.842;6.084;2023-03-01T04:57:41;-4.65;92.35
66144;SHT31;52947;50.842;6.084;2023-03-01T05:00:11;-4.71;91.88
66144;SHT31;52947;50.842;6.084;2023-03-01T05:02:49;-4.82;91.57
66144;SHT31;52947;50.842;6.084;2023-03-01T05:05:26;-4.87;91.69
66144;SHT31;52947;50.842;6.084;2023-03-01T05:07:57;-4.92;91.61
66144;SHT31;52947;50.842;6.084;2023-03-01T05:10:26;-5.04;91.41
66144;SHT31;52947;50.842;6.084;2023-03-01T05:12:56;-4.96;92.57
66144;SHT31;52947;50.842;6.084;2023-03-01T05:15:25;-4.90;92.44
66144;SHT31;52947;50.842;6.084;2023-03-01T05:17:55;-4.45;92.66
66144;SHT31;52947;50.842;6.084;2023-03-01T05:20:25;-4.05;90.93
66144;SHT31;52947;50.842;6.084;2023-03-01T05:22:59;-3.90;89.66
66144;SHT31;52947;50.842;6.084;2023-03-01T05:25:32;-4.04;89.98
66144;SHT31;52947;50.842;6.084;2023-03-01T05:28:01;-4.04;89.75
66144;SHT31;52947;50.842;6.084;2023-03-01T05:30:31;-4.10;90.51
66144;SHT31;52947;50.842;6.084;2023-03-01T05:32:59;-3.91;90.17
66144;SHT31;52947;50.842;6.084;2023-03-01T05:35:28;-3.73;89.25
66144;SHT31;52947;50.842;6.084;2023-03-01T05:38:00;-4.08;89.48
66144;SHT31;52947;50.842;6.084;2023-03-01T05:40:28;-4.25;89.81
66144;SHT31;52947;50.842;6.084;2023-03-01T05:42:56;-4.29;90.58
66144;SHT31;52947;50.842;6.084;2023-03-01T05:45:26;-4.34;90.80
66144;SHT31;52947;50.842;6.084;2023-03-01T05:47:54;-4.54;90.48
66144;SHT31;52947;50.842;6.084;2023-03-01T05:50:23;-4.62;91.05
66144;SHT31;52947;50.842;6.084;2023-03-01T05:52:58;-4.77;90.78
66144;SHT31;52947;50.842;6.084;2023-03-01T05:55:28;-4.90;90.89
66144;SHT31;52947;50.842;6.084;2023-03-01T05:57:58;-5.00;90.93
66144;SHT31;52947;50.842;6.084;2023-03-01T06:00:27;-5.13;90.93
66144;SHT31;52947;50.842;6.084;2023-03-01T06:02:56;-5.21;90.94
66144;SHT31;52947;50.842;6.084;2023-03-01T06:05:24;-5.30;91.08
66144;SHT31;52947;50.842;6.084;2023-03-01T06:07:53;-5.31;91.32
66144;SHT31;52947;50.842;6.084;2023-03-01T06:10:22;-5.38;91.39
66144;SHT31;52947;50.842;6.084;2023-03-01T06:12:51;-5.27;92.33
66144;SHT31;52947;50.842;6.084;2023-03-01T06:15:19;-5.31;92.12
66144;SHT31;52947;50.842;6.084;2023-03-01T06:17:47;-5.34;91.98
66144;SHT31;52947;50.842;6.084;2023-03-01T06:20:16;-5.31;92.28
66144;SHT31;52947;50.842;6.084;2023-03-01T06:22:44;-5.32;92.03
66144;SHT31;52947;50.842;6.084;2023-03-01T06:25:14;-5.32;91.85
66144;SHT31;52947;50.842;6.084;2023-03-01T06:27:42;-5.38;91.80
66144;SHT31;52947;50.842;6.084;2023-03-01T06:30:13;-5.41;91.91
66144;SHT31;52947;50.842;6.084;2023-03-01T06:32:41;-5.32;92.13
66144;SHT31;52947;50.842;6.084;2023-03-01T06:35:10;-5.28;92.19
66144;SHT31;52947;50.842;6.084;2023-03-01T06:37:38;-5.06;92.75
66144;SHT31;52947;50.842;6.084;2023-03-01T06:40:08;-4.77;92.94
66144;SHT31;52947;50.842;6.084;2023-03-01T06:42:40;-4.42;92.61
66144;SHT31;52947;50.842;6.084;2023-03-01T06:45:09;-3.91;91.40
66144;SHT31;52947;50.842;6.084;2023-03-01T06:47:38;-3.36;90.69
66144;SHT31;52947;50.842;6.084;2023-03-01T06:50:06;-2.77;89.38
66144;SHT31;52947;50.842;6.084;2023-03-01T06:52:34;-2.15;88.72
66144;SHT31;52947;50.842;6.084;2023-03-01T06:55:03;-1.57;86.68
66144;SHT31;52947;50.842;6.084;2023-03-01T06:57:31;-1.15;85.16
66144;SHT31;52947;50.842;6.084;2023-03-01T06:59:59;-0.88;85.31
66144;SHT31;52947;50.842;6.084;2023-03-01T07:02:27;-0.82;84.37
66144;SHT31;52947;50.842;6.084;2023-03-01T07:04:56;-0.55;83.57
66144;SHT31;52947;50.842;6.084;2023-03-01T07:07:24;0.07;81.70
66144;SHT31;52947;50.842;6.084;2023-03-01T07:09:52;0.75;77.93
66144;SHT31;52947;50.842;6.084;2023-03-01T07:12:20;1.57;75.33
66144;SHT31;52947;50.842;6.084;2023-03-01T07:14:48;2.22;72.60
66144;SHT31;52947;50.842;6.084;2023-03-01T07:17:16;3.14;69.27
66144;SHT31;52947;50.842;6.084;2023-03-01T07:19:45;3.46;67.80
66144;SHT31;52947;50.842;6.084;2023-03-01T07:22:14;3.90;66.70
66144;SHT31;52947;50.842;6.084;2023-03-01T07:24:42;3.91;65.40
66144;SHT31;52947;50.842;6.084;2023-03-01T07:27:10;4.51;64.20
66144;SHT31;52947;50.842;6.084;2023-03-01T07:29:38;5.13;62.60
66144;SHT31;52947;50.842;6.084;2023-03-01T07:32:06;5.06;61.85
66144;SHT31;52947;50.842;6.084;2023-03-01T07:34:34;5.46;60.66
66144;SHT31;52947;50.842;6.084;2023-03-01T07:37:02;6.12;59.08
66144;SHT31;52947;50.842;6.084;2023-03-01T07:39:31;6.22;58.35
66144;SHT31;52947;50.842;6.084;2023-03-01T07:41:59;7.08;57.18
66144;SHT31;52947;50.842;6.084;2023-03-01T07:44:27;7.35;56.05
66144;SHT31;52947;50.842;6.084;2023-03-01T07:46:55;8.30;55.11
66144;SHT31;52947;50.842;6.084;2023-03-01T07:49:24;9.12;52.52
66144;SHT31;52947;50.842;6.084;2023-03-01T07:51:53;9.24;50.78
66144;SHT31;52947;50.842;6.084;2023-03-01T07:54:22;10.39;49.15
66144;SHT31;52947;50.842;6.084;2023-03-01T07:56:51;10.94;47.35
66144;SHT31;52947;50.842;6.084;2023-03-01T07:59:18;10.36;48.47
66144;SHT31;52947;50.842;6.084;2023-03-01T08:01:46;10.25;48.69
66144;SHT31;52947;50.842;6.084;2023-03-01T08:04:14;10.50;47.95
66144;SHT31;52947;50.842;6.084;2023-03-01T08:06:42;11.52;46.34
66144;SHT31;52947;50.842;6.084;2023-03-01T08:09:10;10.99;46.09
66144;SHT31;52947;50.842;6.084;2023-03-01T08:11:38;11.11;46.61
66144;SHT31;52947;50.842;6.084;2023-03-01T08:14:07;12.94;54.86
66144;SHT31;52947;50.842;6.084;2023-03-01T08:16:35;13.27;50.02
66144;SHT31;52947;50.842;6.084;2023-03-01T08:19:04;13.73;46.19
66144;SHT31;52947;50.842;6.084;2023-03-01T08:21:32;14.99;44.78
66144;SHT31;52947;50.842;6.084;2023-03-01T08:24:01;14.68;42.90
66144;SHT31;52947;50.842;6.084;2023-03-01T08:26:30;15.51;44.00
66144;SHT31;52947;50.842;6.084;2023-03-01T08:28:59;16.08;41.60
66144;SHT31;52947;50.842;6.084;2023-03-01T08:31:29;16.16;42.68
66144;SHT31;52947;50.842;6.084;2023-03-01T08:33:59;16.67;39.03
66144;SHT31;52947;50.842;6.084;2023-03-01T08:36:29;14.13;42.94
66144;SHT31;52947;50.842;6.084;2023-03-01T08:38:58;14.32;42.79
66144;SHT31;52947;50.842;6.084;2023-03-01T08:41:26;15.23;43.38
66144;SHT31;52947;50.842;6.084;2023-03-01T08:43:54;14.76;42.52
66144;SHT31;52947;50.842;6.084;2023-03-01T08:46:26;14.39;41.56
66144;SHT31;52947;50.842;6.084;2023-03-01T08:48:56;13.54;40.86
66144;SHT31;52947;50.842;6.084;2023-03-01T08:51:25;12.58;43.14
66144;SHT31;52947;50.842;6.084;2023-03-01T08:54:06;12.31;43.28
66144;SHT31;52947;50.842;6.084;2023-03-01T08:56:55;12.14;45.93
66144;SHT31;52947;50.842;6.084;2023-03-01T08:59:26;11.25;46.82
66144;SHT31;52947;50.842;6.084;2023-03-01T09:01:55;11.69;45.28
66144;SHT31;52947;50.842;6.084;2023-03-01T09:04:25;11.69;44.67
66144;SHT31;52947;50.842;6.084;2023-03-01T09:06:53;10.93;46.75
66144;SHT31;52947;50.842;6.084;2023-03-01T09:09:20;10.28;46.67
66144;SHT31;52947;50.842;6.084;2023-03-01T09:11:48;11.62;44.50
66144;SHT31;52947;50.842;6.084;2023-03-01T09:14:17;10.19;45.20
66144;SHT31;52947;50.842;6.084;2023-03-01T09:16:45;11.54;43.27
66144;SHT31;52947;50.842;6.084;2023-03-01T09:19:13;9.70;46.36
66144;SHT31;52947;50.842;6.084;2023-03-01T09:21:43;9.27;46.51
66144;SHT31;52947;50.842;6.084;2023-03-01T09:24:19;8.42;49.08
66144;SHT31;52947;50.842;6.084;2023-03-01T09:26:48;9.73;45.89
66144;SHT31;52947;50.842;6.084;2023-03-01T09:29:17;10.30;45.58
66144;SHT31;52947;50.842;6.084;2023-03-01T09:31:45;10.30;44.80
66144;SHT31;52947;50.842;6.084;2023-03-01T09:34:13;10.08;45.32
66144;SHT31;52947;50.842;6.084;2023-03-01T09:36:44;9.78;45.75
66144;SHT31;52947;50.842;6.084;2023-03-01T09:39:11;9.58;46.50
66144;SHT31;52947;50.842;6.084;2023-03-01T09:41:46;10.15;46.01
66144;SHT31;52947;50.842;6.084;2023-03-01T09:44:26;10.19;45.45
66144;SHT31;52947;50.842;6.084;2023-03-01T09:46:55;9.91;45.82
66144;SHT31;52947;50.842;6.084;2023-03-01T09:49:26;9.92;46.68
66144;SHT31;52947;50.842;6.084;2023-03-01T09:52:11;10.38;45.13
66144;SHT31;52947;50.842;6.084;2023-03-01T09:54:41;9.87;46.03
66144;SHT31;52947;50.842;6.084;2023-03-01T09:57:18;9.70;46.29
66144;SHT31;52947;50.842;6.084;2023-03-01T10:00:01;10.38;45.47
66144;SHT31;52947;50.842;6.084;2023-03-01T10:02:39;8.86;47.99
66144;SHT31;52947;50.842;6.084;2023-03-01T10:05:28;10.56;44.73
66144;SHT31;52947;50.842;6.084;2023-03-01T10:08:06;9.94;44.69
66144;SHT31;52947;50.842;6.084;2023-03-01T10:10:44;10.13;46.23
66144;SHT31;52947;50.842;6.084;2023-03-01T10:13:19;10.76;44.65
66144;SHT31;52947;50.842;6.084;2023-03-01T10:15:52;9.67;46.08
66144;SHT31;52947;50.842;6.084;2023-03-01T10:18:29;9.85;46.07
66144;SHT31;52947;50.842;6.084;2023-03-01T10:21:00;10.12;46.42
66144;SHT31;52947;50.842;6.084;2023-03-01T10:23:31;9.00;48.39
66144;SHT31;52947;50.842;6.084;2023-03-01T10:26:12;8.93;48.12
66144;SHT31;52947;50.842;6.084;2023-03-01T10:28:53;9.64;47.10
66144;SHT31;52947;50.842;6.084;2023-03-01T10:31:26;9.34;46.93
66144;SHT31;52947;50.842;6.084;2023-03-01T10:34:08;8.25;49.30
66144;SHT31;52947;50.842;6.084;2023-03-01T10:36:38;7.79;50.16
66144;SHT31;52947;50.842;6.084;2023-03-01T10:39:15;8.71;48.51
66144;SHT31;52947;50.842;6.084;2023-03-01T10:41:56;9.34;47.33
66144;SHT31;52947;50.842;6.084;2023-03-01T10:44:43;8.47;48.85
66144;SHT31;52947;50.842;6.084;2023-03-01T10:47:19;8.75;48.04
66144;SHT31;52947;50.842;6.084;2023-03-01T10:49:56;9.74;46.52
66144;SHT31;52947;50.842;6.084;2023-03-01T10:52:27;9.99;46.38
66144;SHT31;52947;50.842;6.084;2023-03-01T10:54:58;9.67;46.64
66144;SHT31;52947;50.842;6.084;2023-03-01T10:57:30;7.75;51.28
66144;SHT31;52947;50.842;6.084;2023-03-01T11:00:15;8.75;48.48
66144;SHT31;52947;50.842;6.084;2023-03-01T11:02:47;9.75;46.67
66144;SHT31;52947;50.842;6.084;2023-03-01T11:05:20;10.05;46.41
66144;SHT31;52947;50.842;6.084;2023-03-01T11:07:52;9.77;47.31
66144;SHT31;52947;50.842;6.084;2023-03-01T11:10:23;9.87;46.70
66144;SHT31;52947;50.842;6.084;2023-03-01T11:12:52;9.77;46.80
66144;SHT31;52947;50.842;6.084;2023-03-01T11:15:25;8.72;49.29
66144;SHT31;52947;50.842;6.084;2023-03-01T11:17:55;9.20;47.40
66144;SHT31;52947;50.842;6.084;2023-03-01T11:20:35;9.65;46.91
66144;SHT31;52947;50.842;6.084;2023-03-01T11:23:05;9.79;46.92
66144;SHT31;52947;50.842;6.084;2023-03-01T11:25:40;9.57;47.27
66144;SHT31;52947;50.842;6.084;2023-03-01T11:28:13;9.58;48.26
66144;SHT31;52947;50.842;6.084;2023-03-01T11:30:49;8.06;51.38
66144;SHT31;52947;50.842;6.084;2023-03-01T11:33:37;9.71;48.05
66144;SHT31;52947;50.842;6.084;2023-03-01T11:36:16;10.26;46.40
66144;SHT31;52947;50.842;6.084;2023-03-01T11:38:44;9.78;47.23
66144;SHT31;52947;50.842;6.084;2023-03-01T11:41:16;10.06;46.65
66144;SHT31;52947;50.842;6.084;2023-03-01T11:43:49;9.79;45.64
66144;SHT31;52947;50.842;6.084;2023-03-01T11:46:43;9.81;46.63
66144;SHT31;52947;50.842;6.084;2023-03-01T11:49:28;10.87;45.33
66144;SHT31;52947;50.842;6.084;2023-03-01T11:52:03;10.71;44.76
66144;SHT31;52947;50.842;6.084;2023-03-01T11:54:47;9.84;45.53
66144;SHT31;52947;50.842;6.084;2023-03-01T11:57:27;9.54;46.78
66144;SHT31;52947;50.842;6.084;2023-03-01T12:00:22;9.89;46.49
66144;SHT31;52947;50.842;6.084;2023-03-01T12:03:22;9.89;46.08
66144;SHT31;52947;50.842;6.084;2023-03-01T12:06:03;8.21;48.07
66144;SHT31;52947;50.842;6.084;2023-03-01T12:08:36;9.13;48.09
66144;SHT31;52947;50.842;6.084;2023-03-01T12:11:17;9.91;47.36
66144;SHT31;52947;50.842;6.084;2023-03-01T12:14:17;9.46;48.61
66144;SHT31;52947;50.842;6.084;2023-03-01T12:16:59;8.72;47.81
66144;SHT31;52947;50.842;6.084;2023-03-01T12:19:36;10.06;46.06
66144;SHT31;52947;50.842;6.084;2023-03-01T12:22:17;9.03;47.71
66144;SHT31;52947;50.842;6.084;2023-03-01T12:25:12;8.55;48.76
66144;SHT31;52947;50.842;6.084;2023-03-01T12:28:23;9.19;49.01
66144;SHT31;52947;50.842;6.084;2023-03-01T12:31:05;9.97;47.09
66144;SHT31;52947;50.842;6.084;2023-03-01T12:33:44;10.12;45.82
66144;SHT31;52947;50.842;6.084;2023-03-01T12:36:35;9.75;47.64
66144;SHT31;52947;50.842;6.084;2023-03-01T12:39:21;10.20;46.92
66144;SHT31;52947;50.842;6.084;2023-03-01T12:41:58;10.13;47.69
66144;SHT31;52947;50.842;6.084;2023-03-01T12:44:38;9.99;47.14
66144;SHT31;52947;50.842;6.084;2023-03-01T12:47:21;7.93;50.33
66144;SHT31;52947;50.842;6.084;2023-03-01T12:49:54;8.68;49.50
66144;SHT31;52947;50.842;6.084;2023-03-01T12:52:32;8.66;50.13
66144;SHT31;52947;50.842;6.084;2023-03-01T12:55:02;7.67;51.44
66144;SHT31;52947;50.842;6.084;2023-03-01T12:57:37;7.32;51.40
66144;SHT31;52947;50.842;6.084;2023-03-01T13:00:17;7.45;51.39
66144;SHT31;52947;50.842;6.084;2023-03-01T13:02:54;8.06;50.21
66144;SHT31;52947;50.842;6.084;2023-03-01T13:05:33;7.97;51.06
66144;SHT31;52947;50.842;6.084;2023-03-01T13:08:09;7.82;50.42
66144;SHT31;52947;50.842;6.084;2023-03-01T13:10:43;6.88;52.89
66144;SHT31;52947;50.842;6.084;2023-03-01T13:13:20;7.97;51.17
66144;SHT31;52947;50.842;6.084;2023-03-01T13:15:49;7.43;50.80
66144;SHT31;52947;50.842;6.084;2023-03-01T13:18:32;6.69;52.14
66144;SHT31;52947;50.842;6.084;2023-03-01T13:21:02;6.97;52.11
66144;SHT31;52947;50.842;6.084;2023-03-01T13:23:38;7.43;51.77
66144;SHT31;52947;50.842;6.084;2023-03-01T13:26:10;7.29;52.18
66144;SHT31;52947;50.842;6.084;2023-03-01T13:28:50;7.39;51.38
66144;SHT31;52947;50.842;6.084;2023-03-01T13:34:43;7.49;51.71
66144;SHT31;52947;50.842;6.084;2023-03-01T13:37:23;7.82;51.21
66144;SHT31;52947;50.842;6.084;2023-03-01T13:39:52;7.11;52.90
66144;SHT31;52947;50.842;6.084;2023-03-01T13:42:44;7.38;52.76
66144;SHT31;52947;50.842;6.084;2023-03-01T13:45:34;7.32;52.89
66144;SHT31;52947;50.842;6.084;2023-03-01T13:48:11;7.32;52.77
66144;SHT31;52947;50.842;6.084;2023-03-01T13:50:47;7.19;51.99
66144;SHT31;52947;50.842;6.084;2023-03-01T13:53:18;6.71;52.56
66144;SHT31;52947;50.842;6.084;2023-03-01T13:55:49;6.83;53.07
66144;SHT31;52947;50.842;6.084;2023-03-01T13:58:22;6.49;53.54
66144;SHT31;52947;50.842;6.084;2023-03-01T14:00:56;6.30;53.90
66144;SHT31;52947;50.842;6.084;2023-03-01T14:03:25;6.54;53.41
66144;SHT31;52947;50.842;6.084;2023-03-01T14:06:03;6.39;53.91
66144;SHT31;52947;50.842;6.084;2023-03-01T14:08:44;6.81;52.86
66144;SHT31;52947;50.842;6.084;2023-03-01T14:17:20;5.97;53.48
66144;SHT31;52947;50.842;6.084;2023-03-01T14:19:55;6.18;53.32
66144;SHT31;52947;50.842;6.084;2023-03-01T14:22:27;5.99;53.02
66144;SHT31;52947;50.842;6.084;2023-03-01T14:24:57;6.06;53.59
66144;SHT31;52947;50.842;6.084;2023-03-01T14:27:29;6.28;53.36
66144;SHT31;52947;50.842;6.084;2023-03-01T14:29:59;6.36;53.19
66144;SHT31;52947;50.842;6.084;2023-03-01T14:32:29;6.06;51.85
66144;SHT31;52947;50.842;6.084;2023-03-01T14:34:58;5.95;52.09
66144;SHT31;52947;50.842;6.084;2023-03-01T14:37:29;5.87;52.66
66144;SHT31;52947;50.842;6.084;2023-03-01T14:39:59;6.05;52.77
66144;SHT31;52947;50.842;6.084;2023-03-01T14:42:31;5.91;53.84
66144;SHT31;52947;50.842;6.084;2023-03-01T14:45:03;5.89;54.47
66144;SHT31;52947;50.842;6.084;2023-03-01T14:47:33;5.99;54.54
66144;SHT31;52947;50.842;6.084;2023-03-01T14:50:06;5.92;54.92
66144;SHT31;52947;50.842;6.084;2023-03-01T14:52:37;5.81;55.40
66144;SHT31;52947;50.842;6.084;2023-03-01T14:55:13;5.79;55.82
66144;SHT31;52947;50.842;6.084;2023-03-01T14:57:43;5.71;54.91
66144;SHT31;52947;50.842;6.084;2023-03-01T15:00:17;5.58;55.07
66144;SHT31;52947;50.842;6.084;2023-03-01T15:02:47;5.52;55.25
66144;SHT31;52947;50.842;6.084;2023-03-01T15:05:18;5.64;55.64
66144;SHT31;52947;50.842;6.084;2023-03-01T15:07:51;5.60;55.25
66144;SHT31;52947;50.842;6.084;2023-03-01T15:10:21;5.58;55.42
66144;SHT31;52947;50.842;6.084;2023-03-01T15:12:49;5.41;55.20
66144;SHT31;52947;50.842;6.084;2023-03-01T15:15:36;5.43;55.32
66144;SHT31;52947;50.842;6.084;2023-03-01T15:18:13;5.39;55.35
66144;SHT31;52947;50.842;6.084;2023-03-01T15:20:42;5.46;55.79
66144;SHT31;52947;50.842;6.084;2023-03-01T15:23:21;5.41;55.39
66144;SHT31;52947;50.842;6.084;2023-03-01T15:25:51;5.31;55.19
66144;SHT31;52947;50.842;6.084;2023-03-01T15:28:25;5.36;55.08
66144;SHT31;52947;50.842;6.084;2023-03-01T15:30:56;5.43;55.14
66144;SHT31;52947;50.842;6.084;2023-03-01T15:33:32;5.43;54.86
66144;SHT31;52947;50.842;6.084;2023-03-01T15:36:00;5.46;55.16
66144;SHT31;52947;50.842;6.084;2023-03-01T15:38:50;5.41;54.98
66144;SHT31;52947;50.842;6.084;2023-03-01T15:41:25;5.37;55.36
66144;SHT31;52947;50.842;6.084;2023-03-01T15:43:54;5.29;55.65
66144;SHT31;52947;50.842;6.084;2023-03-01T15:46:28;5.34;55.75
66144;SHT31;52947;50.842;6.084;2023-03-01T15:49:00;5.31;55.86
66144;SHT31;52947;50.842;6.084;2023-03-01T15:51:32;5.27;55.58
66144;SHT31;52947;50.842;6.084;2023-03-01T15:54:04;5.26;55.33
66144;SHT31;52947;50.842;6.084;2023-03-01T15:56:33;5.24;55.41
66144;SHT31;52947;50.842;6.084;2023-03-01T15:59:02;5.24;55.79
66144;SHT31;52947;50.842;6.084;2023-03-01T16:01:31;5.20;55.93
66144;SHT31;52947;50.842;6.084;2023-03-01T16:04:00;5.16;55.67
66144;SHT31;52947;50.842;6.084;2023-03-01T16:06:28;5.16;55.83
66144;SHT31;52947;50.842;6.084;2023-03-01T16:08:57;5.13;56.13
66144;SHT31;52947;50.842;6.084;2023-03-01T16:11:26;5.15;56.19
66144;SHT31;52947;50.842;6.084;2023-03-01T16:13:54;5.09;56.39
66144;SHT31;52947;50.842;6.084;2023-03-01T16:16:22;5.07;56.72
66144;SHT31;52947;50.842;6.084;2023-03-01T16:18:51;5.01;57.15